sensor_id;sensor_type;location;lat;lon;timestamp;pressure;altitude;pressure_sealevel;temperature;humidity
9059;BME280;4564;42.034;25.834;2022-10-16T00:00:32;100960.88;;;9.21;81.61
9059;BME280;4564;42.034;25.834;2022-10-16T00:02:59;100959.53;;;9.17;82.21
9059;BME280;4564;42.034;25.834;2022-10-16T00:05:26;100951.56;;;9.15;81.92
9059;BME280;4564;42.034;25.834;2022-10-16T00:07:54;100959.84;;;9.14;82.26
9059;BME280;4564;42.034;25.834;2022-10-16T00:10:20;100951.06;;;9.20;82.99
9059;BME280;4564;42.034;25.834;2022-10-16T00:12:47;100957.47;;;9.19;82.66
9059;BME280;4564;42.034;25.834;2022-10-16T00:15:14;100956.47;;;9.12;82.57
9059;BME280;4564;42.034;25.834;2022-10-16T00:17:40;100962.25;;;8.91;82.48
9059;BME280;4564;42.034;25.834;2022-10-16T00:20:07;100963.47;;;8.71;82.99
9059;BME280;4564;42.034;25.834;2022-10-16T00:22:34;100961.88;;;8.60;83.38
9059;BME280;4564;42.034;25.834;2022-10-16T00:25:02;100970.78;;;8.53;83.57
9059;BME280;4564;42.034;25.834;2022-10-16T00:27:29;100960.91;;;8.43;83.91
9059;BME280;4564;42.034;25.834;2022-10-16T00:29:55;100963.22;;;8.38;84.49
9059;BME280;4564;42.034;25.834;2022-10-16T00:32:22;100962.59;;;8.27;85.23
9059;BME280;4564;42.034;25.834;2022-10-16T00:34:48;100966.56;;;8.15;84.95
9059;BME280;4564;42.034;25.834;2022-10-16T00:37:16;100969.69;;;8.10;86.07
9059;BME280;4564;42.034;25.834;2022-10-16T00:39:42;100969.66;;;8.20;85.94
9059;BME280;4564;42.034;25.834;2022-10-16T00:42:11;100967.63;;;8.22;85.68
9059;BME280;4564;42.034;25.834;2022-10-16T00:44:44;100965.75;;;8.22;85.55
9059;BME280;4564;42.034;25.834;2022-10-16T00:47:13;100974.44;;;8.26;85.72
9059;BME280;4564;42.034;25.834;2022-10-16T00:49:40;100985.47;;;8.32;85.87
9059;BME280;4564;42.034;25.834;2022-10-16T00:52:07;100980.06;;;8.32;85.84
9059;BME280;4564;42.034;25.834;2022-10-16T00:54:34;100981.22;;;8.48;86.60
9059;BME280;4564;42.034;25.834;2022-10-16T00:57:01;100981.38;;;8.46;85.02
9059;BME280;4564;42.034;25.834;2022-10-16T00:59:31;100983.63;;;8.51;85.15
9059;BME280;4564;42.034;25.834;2022-10-16T01:01:58;100980.53;;;8.46;84.93
9059;BME280;4564;42.034;25.834;2022-10-16T01:04:25;100982.25;;;8.47;85.10
9059;BME280;4564;42.034;25.834;2022-10-16T01:06:54;100978.84;;;8.45;84.46
9059;BME280;4564;42.034;25.834;2022-10-16T01:09:26;100984.00;;;8.38;85.51
9059;BME280;4564;42.034;25.834;2022-10-16T01:12:01;100986.03;;;8.36;85.32
9059;BME280;4564;42.034;25.834;2022-10-16T01:14:34;100990.88;;;8.32;84.76
9059;BME280;4564;42.034;25.834;2022-10-16T01:17:04;100988.75;;;8.36;85.11
9059;BME280;4564;42.034;25.834;2022-10-16T01:19:39;100990.22;;;8.30;85.24
9059;BME280;4564;42.034;25.834;2022-10-16T01:22:08;100996.47;;;8.31;85.21
9059;BME280;4564;42.034;25.834;2022-10-16T01:24:37;100999.44;;;8.28;84.92
9059;BME280;4564;42.034;25.834;2022-10-16T01:27:12;101007.69;;;8.26;84.78
9059;BME280;4564;42.034;25.834;2022-10-16T01:29:41;101003.75;;;8.21;85.16
9059;BME280;4564;42.034;25.834;2022-10-16T01:32:13;101012.81;;;8.12;84.74
9059;BME280;4564;42.034;25.834;2022-10-16T01:34:42;101009.09;;;8.13;85.62
9059;BME280;4564;42.034;25.834;2022-10-16T01:37:14;101002.69;;;8.14;85.09
9059;BME280;4564;42.034;25.834;2022-10-16T01:39:42;101011.47;;;8.16;85.48
9059;BME280;4564;42.034;25.834;2022-10-16T01:42:14;101014.03;;;8.17;85.27
9059;BME280;4564;42.034;25.834;2022-10-16T01:44:42;101007.41;;;8.12;85.30
9059;BME280;4564;42.034;25.834;2022-10-16T01:47:10;101007.41;;;8.12;85.14
9059;BME280;4564;42.034;25.834;2022-10-16T01:49:37;101012.13;;;8.10;85.36
9059;BME280;4564;42.034;25.834;2022-10-16T01:52:05;101014.38;;;8.14;84.68
9059;BME280;4564;42.034;25.834;2022-10-16T01:54:33;101006.16;;;8.06;84.11
9059;BME280;4564;42.034;25.834;2022-10-16T01:57:01;101016.44;;;8.02;84.34
9059;BME280;4564;42.034;25.834;2022-10-16T01:59:32;101018.16;;;8.04;83.97
9059;BME280;4564;42.034;25.834;2022-10-16T02:02:03;101022.44;;;7.96;83.41
9059;BME280;4564;42.034;25.834;2022-10-16T02:04:34;101020.75;;;7.95;82.88
9059;BME280;4564;42.034;25.834;2022-10-16T02:07:02;101030.16;;;7.91;82.61
9059;BME280;4564;42.034;25.834;2022-10-16T02:09:29;101035.66;;;7.72;83.25
9059;BME280;4564;42.034;25.834;2022-10-16T02:11:56;101035.84;;;7.71;83.68
9059;BME280;4564;42.034;25.834;2022-10-16T02:14:27;101025.13;;;7.79;84.21
9059;BME280;4564;42.034;25.834;2022-10-16T02:16:55;101033.06;;;7.80;83.45
9059;BME280;4564;42.034;25.834;2022-10-16T02:19:22;101038.78;;;7.77;83.82
9059;BME280;4564;42.034;25.834;2022-10-16T02:21:49;101048.56;;;7.78;84.93
9059;BME280;4564;42.034;25.834;2022-10-16T02:24:19;101031.63;;;7.86;84.59
9059;BME280;4564;42.034;25.834;2022-10-16T02:26:51;101038.03;;;7.85;84.21
9059;BME280;4564;42.034;25.834;2022-10-16T02:29:20;101039.03;;;7.84;84.42
9059;BME280;4564;42.034;25.834;2022-10-16T02:31:49;101051.88;;;7.72;83.68
9059;BME280;4564;42.034;25.834;2022-10-16T02:34:18;101062.00;;;7.70;83.18
9059;BME280;4564;42.034;25.834;2022-10-16T02:36:48;101062.06;;;7.61;83.19
9059;BME280;4564;42.034;25.834;2022-10-16T02:39:15;101065.97;;;7.39;84.12
9059;BME280;4564;42.034;25.834;2022-10-16T02:41:42;101067.53;;;7.41;84.66
9059;BME280;4564;42.034;25.834;2022-10-16T02:44:09;101067.13;;;7.36;84.82
9059;BME280;4564;42.034;25.834;2022-10-16T02:46:36;101073.22;;;7.38;85.67
9059;BME280;4564;42.034;25.834;2022-10-16T02:49:02;101068.81;;;7.37;85.59
9059;BME280;4564;42.034;25.834;2022-10-16T02:51:30;101070.41;;;7.30;85.40
9059;BME280;4564;42.034;25.834;2022-10-16T02:53:57;101066.56;;;7.33;86.69
9059;BME280;4564;42.034;25.834;2022-10-16T02:56:23;101064.72;;;7.33;86.57
9059;BME280;4564;42.034;25.834;2022-10-16T02:58:50;101069.22;;;7.42;86.35
9059;BME280;4564;42.034;25.834;2022-10-16T03:01:17;101076.47;;;7.42;86.46
9059;BME280;4564;42.034;25.834;2022-10-16T03:03:43;101075.06;;;7.38;86.20
9059;BME280;4564;42.034;25.834;2022-10-16T03:06:10;101076.25;;;7.26;85.07
9059;BME280;4564;42.034;25.834;2022-10-16T03:08:38;101074.13;;;7.20;85.47
9059;BME280;4564;42.034;25.834;2022-10-16T03:11:04;101073.72;;;7.14;85.13
9059;BME280;4564;42.034;25.834;2022-10-16T03:13:31;101066.78;;;7.12;85.60
9059;BME280;4564;42.034;25.834;2022-10-16T03:15:58;101072.72;;;7.15;87.12
9059;BME280;4564;42.034;25.834;2022-10-16T03:18:25;101081.38;;;7.29;85.78
9059;BME280;4564;42.034;25.834;2022-10-16T03:20:51;101085.34;;;7.25;85.78
9059;BME280;4564;42.034;25.834;2022-10-16T03:23:18;101089.03;;;7.24;85.17
9059;BME280;4564;42.034;25.834;2022-10-16T03:25:46;101094.72;;;7.21;85.09
9059;BME280;4564;42.034;25.834;2022-10-16T03:28:12;101098.16;;;7.03;84.13
9059;BME280;4564;42.034;25.834;2022-10-16T03:30:39;101087.97;;;6.88;85.65
9059;BME280;4564;42.034;25.834;2022-10-16T03:33:05;101078.06;;;6.69;86.28
9059;BME280;4564;42.034;25.834;2022-10-16T03:35:32;101083.31;;;6.61;85.56
9059;BME280;4564;42.034;25.834;2022-10-16T03:37:59;101090.00;;;6.47;86.46
9059;BME280;4564;42.034;25.834;2022-10-16T03:40:26;101090.84;;;6.57;85.88
9059;BME280;4564;42.034;25.834;2022-10-16T03:42:54;101100.19;;;6.72;85.86
9059;BME280;4564;42.034;25.834;2022-10-16T03:45:22;101107.44;;;6.72;85.32
9059;BME280;4564;42.034;25.834;2022-10-16T03:47:49;101103.31;;;6.68;85.47
9059;BME280;4564;42.034;25.834;2022-10-16T03:50:15;101100.63;;;6.68;85.51
9059;BME280;4564;42.034;25.834;2022-10-16T03:52:42;101102.59;;;6.66;85.17
9059;BME280;4564;42.034;25.834;2022-10-16T03:55:09;101105.31;;;6.66;85.15
9059;BME280;4564;42.034;25.834;2022-10-16T03:57:35;101104.44;;;6.75;85.21
9059;BME280;4564;42.034;25.834;2022-10-16T04:00:03;101112.41;;;6.77;84.45
9059;BME280;4564;42.034;25.834;2022-10-16T04:02:30;101100.22;;;6.63;85.87
9059;BME280;4564;42.034;25.834;2022-10-16T04:04:57;101106.03;;;6.58;85.20
9059;BME280;4564;42.034;25.834;2022-10-16T04:07:23;101100.34;;;6.61;86.55
9059;BME280;4564;42.034;25.834;2022-10-16T04:09:50;101108.56;;;6.60;85.85
9059;BME280;4564;42.034;25.834;2022-10-16T04:12:17;101105.88;;;6.60;86.76
9059;BME280;4564;42.034;25.834;2022-10-16T04:14:44;101105.00;;;6.59;86.21
9059;BME280;4564;42.034;25.834;2022-10-16T04:17:11;101102.19;;;6.61;87.46
9059;BME280;4564;42.034;25.834;2022-10-16T04:19:38;101102.59;;;6.66;86.78
9059;BME280;4564;42.034;25.834;2022-10-16T04:22:05;101103.75;;;6.73;87.23
9059;BME280;4564;42.034;25.834;2022-10-16T04:24:31;101107.00;;;6.67;85.89
9059;BME280;4564;42.034;25.834;2022-10-16T04:26:58;101110.69;;;6.66;86.21
9059;BME280;4564;42.034;25.834;2022-10-16T04:29:24;101118.38;;;6.61;85.13
9059;BME280;4564;42.034;25.834;2022-10-16T04:31:51;101114.81;;;6.60;86.04
9059;BME280;4564;42.034;25.834;2022-10-16T04:34:19;101115.81;;;6.69;86.24
9059;BME280;4564;42.034;25.834;2022-10-16T04:36:46;101115.81;;;6.69;86.13
9059;BME280;4564;42.034;25.834;2022-10-16T04:39:13;101116.66;;;6.69;85.82
9059;BME280;4564;42.034;25.834;2022-10-16T04:41:39;101124.91;;;6.68;86.56
9059;BME280;4564;42.034;25.834;2022-10-16T04:44:06;101127.16;;;6.72;86.38
9059;BME280;4564;42.034;25.834;2022-10-16T04:46:33;101136.81;;;6.75;85.81
9059;BME280;4564;42.034;25.834;2022-10-16T04:49:00;101140.53;;;6.74;86.69
9059;BME280;4564;42.034;25.834;2022-10-16T04:51:28;101139.25;;;6.78;86.70
9059;BME280;4564;42.034;25.834;2022-10-16T04:53:54;101146.78;;;6.84;85.81
9059;BME280;4564;42.034;25.834;2022-10-16T04:56:21;101136.69;;;6.77;85.81
9059;BME280;4564;42.034;25.834;2022-10-16T04:58:48;101139.38;;;6.77;86.11
9059;BME280;4564;42.034;25.834;2022-10-16T05:01:14;101149.03;;;6.79;86.36
9059;BME280;4564;42.034;25.834;2022-10-16T05:03:41;101151.88;;;6.87;86.30
9059;BME280;4564;42.034;25.834;2022-10-16T05:06:08;101143.63;;;6.98;85.15
9059;BME280;4564;42.034;25.834;2022-10-16T05:08:35;101156.25;;;7.07;84.94
9059;BME280;4564;42.034;25.834;2022-10-16T05:11:02;101153.28;;;7.10;84.84
9059;BME280;4564;42.034;25.834;2022-10-16T05:13:29;101155.81;;;7.22;84.15
9059;BME280;4564;42.034;25.834;2022-10-16T05:15:55;101163.47;;;7.36;83.78
9059;BME280;4564;42.034;25.834;2022-10-16T05:18:22;101160.31;;;7.50;83.74
9059;BME280;4564;42.034;25.834;2022-10-16T05:20:49;101156.28;;;7.64;83.31
9059;BME280;4564;42.034;25.834;2022-10-16T05:23:15;101154.25;;;7.75;82.49
9059;BME280;4564;42.034;25.834;2022-10-16T05:25:43;101161.78;;;7.81;83.69
9059;BME280;4564;42.034;25.834;2022-10-16T05:28:10;101171.59;;;7.82;83.74
9059;BME280;4564;42.034;25.834;2022-10-16T05:30:36;101173.00;;;7.86;82.47
9059;BME280;4564;42.034;25.834;2022-10-16T05:33:03;101182.41;;;7.82;83.64
9059;BME280;4564;42.034;25.834;2022-10-16T05:35:30;101178.97;;;7.80;82.59
9059;BME280;4564;42.034;25.834;2022-10-16T05:37:57;101181.59;;;7.99;82.98
9059;BME280;4564;42.034;25.834;2022-10-16T05:40:23;101181.13;;;8.14;82.13
9059;BME280;4564;42.034;25.834;2022-10-16T05:42:55;101178.34;;;8.23;80.84
9059;BME280;4564;42.034;25.834;2022-10-16T05:45:22;101188.38;;;8.13;80.44
9059;BME280;4564;42.034;25.834;2022-10-16T05:47:48;101186.44;;;8.33;80.33
9059;BME280;4564;42.034;25.834;2022-10-16T05:50:15;101191.16;;;8.21;79.97
9059;BME280;4564;42.034;25.834;2022-10-16T05:52:42;101189.53;;;8.83;80.51
9059;BME280;4564;42.034;25.834;2022-10-16T05:55:08;101198.22;;;10.25;75.02
9059;BME280;4564;42.034;25.834;2022-10-16T05:57:35;101195.19;;;11.67;70.88
9059;BME280;4564;42.034;25.834;2022-10-16T06:00:03;101191.13;;;13.19;65.88
9059;BME280;4564;42.034;25.834;2022-10-16T06:02:30;101194.19;;;14.64;64.13
9059;BME280;4564;42.034;25.834;2022-10-16T06:04:56;101192.44;;;15.57;58.17
9059;BME280;4564;42.034;25.834;2022-10-16T06:07:23;101196.47;;;16.16;55.69
9059;BME280;4564;42.034;25.834;2022-10-16T06:09:49;101205.28;;;16.12;54.16
9059;BME280;4564;42.034;25.834;2022-10-16T06:12:16;101198.22;;;16.30;52.73
9059;BME280;4564;42.034;25.834;2022-10-16T06:14:44;101194.06;;;16.95;51.77
9059;BME280;4564;42.034;25.834;2022-10-16T06:17:13;101199.69;;;17.68;49.55
9059;BME280;4564;42.034;25.834;2022-10-16T06:19:40;101204.13;;;18.08;49.37
9059;BME280;4564;42.034;25.834;2022-10-16T06:22:06;101202.97;;;18.35;48.36
9059;BME280;4564;42.034;25.834;2022-10-16T06:24:33;101204.72;;;18.88;47.40
9059;BME280;4564;42.034;25.834;2022-10-16T06:27:00;101207.31;;;19.14;45.72
9059;BME280;4564;42.034;25.834;2022-10-16T06:29:26;101199.72;;;19.09;45.43
9059;BME280;4564;42.034;25.834;2022-10-16T06:31:53;101205.22;;;19.09;46.12
9059;BME280;4564;42.034;25.834;2022-10-16T06:34:21;101206.28;;;19.46;45.33
9059;BME280;4564;42.034;25.834;2022-10-16T06:36:48;101213.94;;;19.38;45.82
9059;BME280;4564;42.034;25.834;2022-10-16T06:39:14;101211.91;;;19.83;44.87
9059;BME280;4564;42.034;25.834;2022-10-16T06:41:41;101214.94;;;19.99;44.55
9059;BME280;4564;42.034;25.834;2022-10-16T06:44:07;101224.34;;;19.92;44.50
9059;BME280;4564;42.034;25.834;2022-10-16T06:46:34;101229.16;;;19.96;44.84
9059;BME280;4564;42.034;25.834;2022-10-16T06:49:01;101226.84;;;20.18;44.52
9059;BME280;4564;42.034;25.834;2022-10-16T06:51:29;101227.03;;;20.41;44.68
9059;BME280;4564;42.034;25.834;2022-10-16T06:53:57;101223.81;;;20.63;43.88
9059;BME280;4564;42.034;25.834;2022-10-16T06:56:24;101221.19;;;20.31;44.59
9059;BME280;4564;42.034;25.834;2022-10-16T06:58:51;101230.22;;;20.93;43.23
9059;BME280;4564;42.034;25.834;2022-10-16T07:01:19;101238.06;;;20.41;44.51
9059;BME280;4564;42.034;25.834;2022-10-16T07:03:46;101230.81;;;20.95;43.96
9059;BME280;4564;42.034;25.834;2022-10-16T07:06:14;101228.00;;;21.73;42.45
9059;BME280;4564;42.034;25.834;2022-10-16T07:08:43;101233.44;;;21.91;42.02
9059;BME280;4564;42.034;25.834;2022-10-16T07:11:10;101240.34;;;22.12;41.48
9059;BME280;4564;42.034;25.834;2022-10-16T07:13:37;101236.84;;;22.40;40.64
9059;BME280;4564;42.034;25.834;2022-10-16T07:16:05;101232.50;;;22.32;41.26
9059;BME280;4564;42.034;25.834;2022-10-16T07:18:32;101234.19;;;22.22;41.23
9059;BME280;4564;42.034;25.834;2022-10-16T07:21:02;101235.16;;;22.15;41.43
9059;BME280;4564;42.034;25.834;2022-10-16T07:23:29;101232.09;;;21.82;42.36
9059;BME280;4564;42.034;25.834;2022-10-16T07:25:57;101237.88;;;21.92;41.96
9059;BME280;4564;42.034;25.834;2022-10-16T07:28:23;101232.16;;;22.29;41.56
9059;BME280;4564;42.034;25.834;2022-10-16T07:30:50;101234.31;;;22.03;41.28
9059;BME280;4564;42.034;25.834;2022-10-16T07:33:16;101240.19;;;21.95;41.28
9059;BME280;4564;42.034;25.834;2022-10-16T07:35:50;101232.78;;;22.07;41.46
9059;BME280;4564;42.034;25.834;2022-10-16T07:38:16;101235.66;;;22.12;40.84
9059;BME280;4564;42.034;25.834;2022-10-16T07:40:43;101228.78;;;22.50;39.85
9059;BME280;4564;42.034;25.834;2022-10-16T07:43:11;101235.72;;;22.76;38.59
9059;BME280;4564;42.034;25.834;2022-10-16T07:45:38;101229.84;;;22.37;39.29
9059;BME280;4564;42.034;25.834;2022-10-16T07:48:12;101225.31;;;21.96;40.34
9059;BME280;4564;42.034;25.834;2022-10-16T07:50:38;101231.47;;;21.27;42.10
9059;BME280;4564;42.034;25.834;2022-10-16T07:53:05;101234.84;;;20.63;43.42
9059;BME280;4564;42.034;25.834;2022-10-16T07:55:32;101227.47;;;19.95;44.27
9059;BME280;4564;42.034;25.834;2022-10-16T07:57:59;101220.09;;;19.33;45.31
9059;BME280;4564;42.034;25.834;2022-10-16T08:00:27;101221.06;;;19.14;45.90
9059;BME280;4564;42.034;25.834;2022-10-16T08:02:53;101216.25;;;18.58;44.95
9059;BME280;4564;42.034;25.834;2022-10-16T08:05:21;101218.00;;;18.33;45.13
9059;BME280;4564;42.034;25.834;2022-10-16T08:07:48;101219.50;;;18.22;46.43
9059;BME280;4564;42.034;25.834;2022-10-16T08:10:15;101216.56;;;18.11;45.16
9059;BME280;4564;42.034;25.834;2022-10-16T08:12:42;101214.47;;;17.93;45.53
9059;BME280;4564;42.034;25.834;2022-10-16T08:15:09;101212.38;;;17.75;44.83
9059;BME280;4564;42.034;25.834;2022-10-16T08:17:38;101217.88;;;17.69;45.57
9059;BME280;4564;42.034;25.834;2022-10-16T08:20:05;101221.47;;;17.69;44.88
9059;BME280;4564;42.034;25.834;2022-10-16T08:22:31;101221.69;;;17.81;43.63
9059;BME280;4564;42.034;25.834;2022-10-16T08:24:58;101220.81;;;17.74;43.41
9059;BME280;4564;42.034;25.834;2022-10-16T08:27:25;101222.09;;;17.78;43.67
9059;BME280;4564;42.034;25.834;2022-10-16T08:29:51;101226.28;;;17.87;42.80
9059;BME280;4564;42.034;25.834;2022-10-16T08:32:18;101213.63;;;17.92;43.10
9059;BME280;4564;42.034;25.834;2022-10-16T08:34:46;101218.69;;;17.95;43.19
9059;BME280;4564;42.034;25.834;2022-10-16T08:37:12;101222.50;;;17.94;43.34
9059;BME280;4564;42.034;25.834;2022-10-16T08:39:39;101218.47;;;18.03;43.35
9059;BME280;4564;42.034;25.834;2022-10-16T08:42:15;101222.69;;;18.06;42.66
9059;BME280;4564;42.034;25.834;2022-10-16T08:44:55;101231.78;;;18.00;42.14
9059;BME280;4564;42.034;25.834;2022-10-16T08:47:31;101232.66;;;17.81;42.98
9059;BME280;4564;42.034;25.834;2022-10-16T08:50:08;101225.44;;;17.60;42.62
9059;BME280;4564;42.034;25.834;2022-10-16T08:52:35;101223.34;;;17.62;42.34
9059;BME280;4564;42.034;25.834;2022-10-16T08:55:05;101222.94;;;17.85;42.55
9059;BME280;4564;42.034;25.834;2022-10-16T08:57:32;101216.16;;;17.87;43.02
9059;BME280;4564;42.034;25.834;2022-10-16T08:59:59;101228.00;;;17.94;42.53
9059;BME280;4564;42.034;25.834;2022-10-16T09:02:28;101217.44;;;17.91;42.17
9059;BME280;4564;42.034;25.834;2022-10-16T09:04:59;101215.13;;;17.75;42.98
9059;BME280;4564;42.034;25.834;2022-10-16T09:07:32;101211.09;;;17.78;42.48
9059;BME280;4564;42.034;25.834;2022-10-16T09:10:07;101206.88;;;18.01;42.89
9059;BME280;4564;42.034;25.834;2022-10-16T09:12:38;101217.41;;;18.11;41.45
9059;BME280;4564;42.034;25.834;2022-10-16T09:15:13;101206.88;;;18.08;42.07
9059;BME280;4564;42.034;25.834;2022-10-16T09:17:45;101206.81;;;18.21;41.50
9059;BME280;4564;42.034;25.834;2022-10-16T09:20:20;101209.38;;;18.10;41.68
9059;BME280;4564;42.034;25.834;2022-10-16T09:22:52;101217.63;;;18.10;42.29
9059;BME280;4564;42.034;25.834;2022-10-16T09:25:20;101212.56;;;18.13;41.46
9059;BME280;4564;42.034;25.834;2022-10-16T09:27:48;101210.63;;;18.20;41.35
9059;BME280;4564;42.034;25.834;2022-10-16T09:30:19;101206.81;;;18.21;41.08
9059;BME280;4564;42.034;25.834;2022-10-16T09:32:47;101190.34;;;18.15;41.54
9059;BME280;4564;42.034;25.834;2022-10-16T09:35:16;101207.66;;;18.22;40.03
9059;BME280;4564;42.034;25.834;2022-10-16T09:37:44;101197.31;;;18.24;40.01
9059;BME280;4564;42.034;25.834;2022-10-16T09:40:23;101198.78;;;18.20;39.58
9059;BME280;4564;42.034;25.834;2022-10-16T09:42:50;101192.44;;;18.26;40.03
9059;BME280;4564;42.034;25.834;2022-10-16T09:45:21;101185.38;;;18.50;40.11
9059;BME280;4564;42.034;25.834;2022-10-16T09:47:49;101194.25;;;18.58;39.00
9059;BME280;4564;42.034;25.834;2022-10-16T09:50:25;101188.97;;;18.50;39.70
9059;BME280;4564;42.034;25.834;2022-10-16T09:53:05;101187.91;;;18.58;39.45
9059;BME280;4564;42.034;25.834;2022-10-16T09:55:33;101183.03;;;18.60;39.34
9059;BME280;4564;42.034;25.834;2022-10-16T09:57:59;101182.38;;;18.64;38.43
9059;BME280;4564;42.034;25.834;2022-10-16T10:00:26;101191.69;;;18.63;38.48
9059;BME280;4564;42.034;25.834;2022-10-16T10:02:53;101191.69;;;18.63;38.17
9059;BME280;4564;42.034;25.834;2022-10-16T10:05:21;101194.41;;;18.70;38.21
9059;BME280;4564;42.034;25.834;2022-10-16T10:07:53;101198.28;;;18.62;37.96
9059;BME280;4564;42.034;25.834;2022-10-16T10:10:21;101178.41;;;18.60;38.33
9059;BME280;4564;42.034;25.834;2022-10-16T10:12:50;101179.84;;;18.63;37.07
9059;BME280;4564;42.034;25.834;2022-10-16T10:15:16;101174.59;;;18.61;37.43
9059;BME280;4564;42.034;25.834;2022-10-16T10:17:47;101168.44;;;18.53;37.71
9059;BME280;4564;42.034;25.834;2022-10-16T10:20:18;101174.16;;;18.58;38.05
9059;BME280;4564;42.034;25.834;2022-10-16T10:22:48;101176.69;;;18.66;37.96
9059;BME280;4564;42.034;25.834;2022-10-16T10:25:23;101176.41;;;18.74;37.14
9059;BME280;4564;42.034;25.834;2022-10-16T10:28:02;101169.66;;;18.70;37.30
9059;BME280;4564;42.034;25.834;2022-10-16T10:30:35;101175.63;;;18.67;37.85
9059;BME280;4564;42.034;25.834;2022-10-16T10:33:08;101159.69;;;18.75;37.69
9059;BME280;4564;42.034;25.834;2022-10-16T10:35:39;101163.88;;;18.84;37.22
9059;BME280;4564;42.034;25.834;2022-10-16T10:38:16;101159.69;;;18.75;36.96
9059;BME280;4564;42.034;25.834;2022-10-16T10:40:48;101162.25;;;18.77;36.84
9059;BME280;4564;42.034;25.834;2022-10-16T10:43:28;101160.75;;;18.74;36.58
9059;BME280;4564;42.034;25.834;2022-10-16T10:45:58;101152.09;;;18.77;36.28
9059;BME280;4564;42.034;25.834;2022-10-16T10:51:22;101147.47;;;18.71;36.81
9059;BME280;4564;42.034;25.834;2022-10-16T10:53:52;101136.47;;;18.71;37.14
9059;BME280;4564;42.034;25.834;2022-10-16T10:56:26;101142.25;;;18.95;37.17
9059;BME280;4564;42.034;25.834;2022-10-16T10:59:09;101127.38;;;19.02;35.34
9059;BME280;4564;42.034;25.834;2022-10-16T11:01:45;101135.84;;;19.01;35.94
9059;BME280;4564;42.034;25.834;2022-10-16T11:04:20;101132.88;;;19.02;36.01
9059;BME280;4564;42.034;25.834;2022-10-16T11:06:55;101134.19;;;19.00;35.19
9059;BME280;4564;42.034;25.834;2022-10-16T11:09:24;101137.09;;;19.05;35.12
9059;BME280;4564;42.034;25.834;2022-10-16T11:11:52;101134.19;;;19.00;34.73
9059;BME280;4564;42.034;25.834;2022-10-16T11:14:23;101129.28;;;19.02;35.35
9059;BME280;4564;42.034;25.834;2022-10-16T11:16:54;101125.63;;;19.08;35.20
9059;BME280;4564;42.034;25.834;2022-10-16T11:19:25;101137.84;;;19.18;35.50
9059;BME280;4564;42.034;25.834;2022-10-16T11:21:59;101128.31;;;19.21;34.00
9059;BME280;4564;42.034;25.834;2022-10-16T11:24:31;101124.66;;;19.27;34.11
9059;BME280;4564;42.034;25.834;2022-10-16T11:27:03;101130.16;;;19.27;33.91
9059;BME280;4564;42.034;25.834;2022-10-16T11:29:32;101125.78;;;19.19;33.74
9059;BME280;4564;42.034;25.834;2022-10-16T11:32:04;101121.44;;;19.05;33.93
9059;BME280;4564;42.034;25.834;2022-10-16T11:34:32;101125.78;;;19.19;33.82
9059;BME280;4564;42.034;25.834;2022-10-16T11:37:02;101114.53;;;19.21;34.60
9059;BME280;4564;42.034;25.834;2022-10-16T11:39:31;101118.88;;;19.35;34.30
9059;BME280;4564;42.034;25.834;2022-10-16T11:41:59;101114.84;;;19.38;32.60
9059;BME280;4564;42.034;25.834;2022-10-16T11:44:38;101121.63;;;19.35;33.06
9059;BME280;4564;42.034;25.834;2022-10-16T11:47:09;101111.50;;;19.29;33.03
9059;BME280;4564;42.034;25.834;2022-10-16T11:49:39;101118.22;;;19.33;33.16
9059;BME280;4564;42.034;25.834;2022-10-16T11:52:07;101117.97;;;19.41;33.11
9059;BME280;4564;42.034;25.834;2022-10-16T11:54:39;101116.44;;;19.52;33.13
9059;BME280;4564;42.034;25.834;2022-10-16T11:57:09;101123.22;;;19.49;33.18
9059;BME280;4564;42.034;25.834;2022-10-16T11:59:40;101122.84;;;19.46;33.24
9059;BME280;4564;42.034;25.834;2022-10-16T12:02:25;101124.53;;;19.40;33.42
9059;BME280;4564;42.034;25.834;2022-10-16T12:04:54;101122.78;;;19.52;33.50
9059;BME280;4564;42.034;25.834;2022-10-16T12:07:27;101114.50;;;19.52;33.28
9059;BME280;4564;42.034;25.834;2022-10-16T12:09:58;101110.59;;;19.60;33.65
9059;BME280;4564;42.034;25.834;2022-10-16T12:12:37;101122.25;;;19.62;33.14
9059;BME280;4564;42.034;25.834;2022-10-16T12:15:18;101125.31;;;19.54;32.84
9059;BME280;4564;42.034;25.834;2022-10-16T12:17:45;101124.47;;;19.53;32.68
9059;BME280;4564;42.034;25.834;2022-10-16T12:20:19;101127.06;;;19.48;33.43
9059;BME280;4564;42.034;25.834;2022-10-16T12:22:47;101130.81;;;19.54;33.13
9059;BME280;4564;42.034;25.834;2022-10-16T12:25:19;101118.97;;;19.53;32.99
9059;BME280;4564;42.034;25.834;2022-10-16T12:27:53;101134.59;;;19.59;32.67
9059;BME280;4564;42.034;25.834;2022-10-16T12:30:22;101128.28;;;19.52;33.12
9059;BME280;4564;42.034;25.834;2022-10-16T12:32:53;101128.28;;;19.52;33.05
9059;BME280;4564;42.034;25.834;2022-10-16T12:35:20;101118.38;;;19.45;33.03
9059;BME280;4564;42.034;25.834;2022-10-16T12:37:48;101128.13;;;19.47;33.13
9059;BME280;4564;42.034;25.834;2022-10-16T12:40:22;101133.31;;;19.55;34.35
9059;BME280;4564;42.034;25.834;2022-10-16T12:42:50;101133.63;;;19.47;35.13
9059;BME280;4564;42.034;25.834;2022-10-16T12:45:28;101131.19;;;19.57;35.63
9059;BME280;4564;42.034;25.834;2022-10-16T12:47:56;101128.81;;;19.61;35.66
9059;BME280;4564;42.034;25.834;2022-10-16T12:50:24;101130.56;;;19.55;35.75
9059;BME280;4564;42.034;25.834;2022-10-16T12:52:52;101122.31;;;19.55;35.31
9059;BME280;4564;42.034;25.834;2022-10-16T12:55:19;101135.03;;;19.56;34.82
9059;BME280;4564;42.034;25.834;2022-10-16T12:57:56;101135.31;;;19.48;35.92
9059;BME280;4564;42.034;25.834;2022-10-16T13:00:26;101133.44;;;19.42;36.52
9059;BME280;4564;42.034;25.834;2022-10-16T13:03:04;101131.28;;;19.44;36.78
9059;BME280;4564;42.034;25.834;2022-10-16T13:05:43;101129.63;;;19.43;37.13
9059;BME280;4564;42.034;25.834;2022-10-16T13:08:18;101130.88;;;19.47;36.24
9059;BME280;4564;42.034;25.834;2022-10-16T13:10:53;101128.53;;;19.44;35.65
9059;BME280;4564;42.034;25.834;2022-10-16T13:13:26;101135.31;;;19.48;36.04
9059;BME280;4564;42.034;25.834;2022-10-16T13:16:05;101136.41;;;19.41;36.41